Time;durP1;ratioP1;P1;durP2;ratioP2;P2;SDS_P1;SDS_P2;PMS_P1;PMS_P2;Temp;Humidity;BMP_temperature;BMP_pressure;BME280_temperature;BME280_humidity;BME280_pressure;Samples;Min_cycle;Max_cycle;Signal;HPM_P1;HPM_P2
2021/04/06 00:01:46;;;;;;;1.02;0.20;;;1.30;99.90;;;;;;5047333;28;20037;-81
2021/04/06 00:04:20;;;;;;;1.60;0.43;;;1.20;99.90;;;;;;5023519;28;20405;-82
2021/04/06 00:06:55;;;;;;;1.02;0.28;;;1.20;99.90;;;;;;5046118;28;20041;-81
2021/04/06 00:09:24;;;;;;;4.68;0.40;;;1.20;99.90;;;;;;5008445;28;20045;-81
2021/04/06 00:11:54;;;;;;;3.70;0.50;;;1.20;99.90;;;;;;5031315;28;20438;-81
2021/04/06 00:14:20;;;;;;;7.63;0.90;;;1.20;99.90;;;;;;5026861;28;20041;-81
2021/04/06 00:16:49;;;;;;;3.60;0.30;;;1.20;99.90;;;;;;4995498;28;20144;-82
2021/04/06 00:19:17;;;;;;;7.45;0.45;;;1.10;99.90;;;;;;5036805;28;20107;-83
2021/04/06 00:21:47;;;;;;;0.95;0.20;;;0.80;99.90;;;;;;5035983;28;20044;-84
2021/04/06 00:24:15;;;;;;;9.18;0.30;;;0.70;99.90;;;;;;5019953;28;20056;-83
2021/04/06 00:27:03;;;;;;;9.57;1.48;;;0.70;99.90;;;;;;5014500;28;20043;-83
2021/04/06 00:29:34;;;;;;;9.82;1.20;;;0.70;99.90;;;;;;5032215;28;20119;-83
2021/04/06 00:32:01;;;;;;;2.55;0.55;;;0.70;99.90;;;;;;5049543;28;20037;-83
2021/04/06 00:34:30;;;;;;;0.45;0.17;;;0.80;99.90;;;;;;5032124;28;20057;-81
2021/04/06 00:36:57;;;;;;;4.43;0.82;;;0.80;99.90;;;;;;5030483;28;20802;-83
2021/04/06 00:39:32;;;;;;;11.25;0.55;;;0.90;99.90;;;;;;5030631;28;20081;-82
2021/04/06 00:42:12;;;;;;;1.13;0.57;;;1.00;99.90;;;;;;5067615;28;20037;-83
2021/04/06 00:44:46;;;;;;;1.85;0.88;;;1.10;99.90;;;;;;5071294;28;20120;-88
2021/04/06 00:47:14;;;;;;;4.38;1.00;;;1.20;99.90;;;;;;5054024;28;20119;-88
2021/04/06 00:49:42;;;;;;;6.78;0.93;;;1.30;99.90;;;;;;5036334;28;20128;-92
2021/04/06 00:52:10;;;;;;;2.40;0.82;;;1.40;99.90;;;;;;5036608;28;20066;-89
2021/04/06 00:54:37;;;;;;;9.40;1.50;;;1.40;99.90;;;;;;5043109;28;20041;-87
2021/04/06 00:57:06;;;;;;;12.60;1.30;;;1.40;99.90;;;;;;5013647;28;20063;-87
2021/04/06 00:59:32;;;;;;;14.05;2.30;;;1.50;99.90;;;;;;5052441;28;20114;-88
2021/04/06 01:02:07;;;;;;;12.13;2.13;;;1.50;99.90;;;;;;5032020;28;20045;-85
2021/04/06 01:04:42;;;;;;;10.55;1.85;;;1.50;99.90;;;;;;5062523;28;20052;-84
2021/04/06 01:07:13;;;;;;;8.75;1.60;;;1.60;99.90;;;;;;5030230;28;20663;-86
2021/04/06 01:09:51;;;;;;;11.77;1.77;;;1.70;99.90;;;;;;5051117;28;20399;-86
2021/04/06 01:12:24;;;;;;;17.67;2.45;;;1.80;99.90;;;;;;5051209;28;20044;-83
2021/04/06 01:14:52;;;;;;;26.33;3.00;;;1.90;99.90;;;;;;5043975;28;20128;-84
2021/04/06 01:17:30;;;;;;;14.15;2.53;;;2.00;99.90;;;;;;5063316;28;20040;-83
2021/04/06 01:19:59;;;;;;;8.95;0.85;;;2.00;99.90;;;;;;5049084;28;20150;-83
2021/04/06 01:22:28;;;;;;;9.73;1.40;;;2.00;99.90;;;;;;5050280;28;20045;-82
2021/04/06 01:24:54;;;;;;;16.55;2.25;;;1.90;99.90;;;;;;5065348;28;20036;-82
2021/04/06 01:27:20;;;;;;;8.35;1.63;;;1.90;99.90;;;;;;5033781;28;20044;-83
2021/04/06 01:29:55;;;;;;;11.90;1.65;;;1.50;99.90;;;;;;5049839;28;20140;-85
2021/04/06 01:32:23;;;;;;;11.68;1.63;;;1.40;99.90;;;;;;5035064;28;20037;-85
2021/04/06 01:34:50;;;;;;;12.02;2.15;;;1.20;99.90;;;;;;5067675;28;20059;-85
2021/04/06 01:37:24;;;;;;;12.43;1.75;;;1.10;99.90;;;;;;5034275;28;20051;-86
2021/04/06 01:39:53;;;;;;;6.97;1.58;;;1.20;99.90;;;;;;5043122;28;20052;-85
2021/04/06 01:42:22;;;;;;;17.83;2.05;;;1.20;99.90;;;;;;5031971;28;20496;-85
2021/04/06 01:44:50;;;;;;;26.58;3.20;;;1.20;99.90;;;;;;5067721;28;20086;-85
2021/04/06 01:47:18;;;;;;;17.58;2.20;;;1.50;99.90;;;;;;5050950;28;20041;-84
2021/04/06 01:49:45;;;;;;;32.47;3.00;;;1.40;99.90;;;;;;5050447;28;20561;-85
2021/04/06 01:52:12;;;;;;;12.00;2.08;;;1.60;99.90;;;;;;5050607;28;20042;-84
2021/04/06 01:54:40;;;;;;;16.05;3.00;;;1.70;99.90;;;;;;5033765;28;20446;-84
2021/04/06 01:57:21;;;;;;;23.45;3.05;;;1.70;99.90;;;;;;5060186;28;20040;-83
2021/04/06 02:00:16;;;;;;;27.17;4.85;;;1.80;99.90;;;;;;5036549;28;20040;-84
2021/04/06 02:02:36;;;;;;;23.73;2.88;;;2.10;99.90;;;;;;5070261;28;20052;-82
2021/04/06 02:05:06;;;;;;;21.55;2.65;;;2.20;99.90;;;;;;5036763;28;20055;-82
2021/04/06 02:07:36;;;;;;;25.02;3.15;;;2.50;99.90;;;;;;5054487;28;20512;-82
2021/04/06 02:10:06;;;;;;;21.15;2.67;;;2.60;99.90;;;;;;5037685;28;20044;-81
2021/04/06 02:12:40;;;;;;;17.15;3.55;;;2.70;99.90;;;;;;5054088;28;20036;-81
2021/04/06 02:15:09;;;;;;;18.38;2.13;;;2.80;99.90;;;;;;5053585;28;20036;-81
2021/04/06 02:17:52;;;;;;;22.67;3.45;;;2.80;99.90;;;;;;5051920;28;20079;-82
2021/04/06 02:20:25;;;;;;;21.10;2.03;;;2.80;99.90;;;;;;5072164;28;20550;-82
2021/04/06 02:22:58;;;;;;;16.95;2.97;;;2.80;99.90;;;;;;5070780;28;20442;-82
2021/04/06 02:25:28;;;;;;;12.00;1.83;;;2.80;99.90;;;;;;5053968;28;20044;-82
2021/04/06 02:27:55;;;;;;;9.80;1.90;;;2.70;99.90;;;;;;5066701;28;20055;-83
2021/04/06 02:30:30;;;;;;;16.13;2.63;;;2.70;99.90;;;;;;5061681;28;20056;-82
2021/04/06 02:32:58;;;;;;;15.10;2.03;;;2.60;99.90;;;;;;5053015;28;20044;-82
2021/04/06 02:35:26;;;;;;;12.82;1.75;;;2.60;99.90;;;;;;5071968;28;20040;-83
2021/04/06 02:37:53;;;;;;;13.25;2.50;;;2.50;99.90;;;;;;5020226;28;20071;-83
2021/04/06 02:40:20;;;;;;;18.90;2.63;;;2.50;99.90;;;;;;5046312;28;20048;-82
2021/04/06 02:42:48;;;;;;;19.83;2.47;;;2.50;99.90;;;;;;5065789;28;20037;-82
2021/04/06 02:45:18;;;;;;;29.30;3.60;;;2.40;99.90;;;;;;5036086;28;20037;-82
2021/04/06 02:47:45;;;;;;;20.50;3.60;;;2.60;99.90;;;;;;5046522;28;20049;-82
2021/04/06 02:50:16;;;;;;;24.42;2.83;;;2.50;99.90;;;;;;5052713;28;20281;-82
2021/04/06 02:52:43;;;;;;;14.27;2.42;;;2.40;99.90;;;;;;5071940;28;20071;-81
2021/04/06 02:55:11;;;;;;;26.45;3.53;;;2.60;99.90;;;;;;5066503;28;20688;-81
2021/04/06 02:57:55;;;;;;;27.38;2.88;;;2.60;99.90;;;;;;5053513;28;20040;-82
2021/04/06 03:00:30;;;;;;;8.60;1.55;;;2.40;99.90;;;;;;5053138;28;20408;-81
2021/04/06 03:02:59;;;;;;;20.05;3.08;;;2.30;99.90;;;;;;5052266;28;20443;-81
2021/04/06 03:05:28;;;;;;;5.13;1.23;;;2.50;99.90;;;;;;5050518;28;20481;-81
2021/04/06 03:07:55;;;;;;;17.20;2.95;;;2.40;99.90;;;;;;5051798;28;20071;-81
2021/04/06 03:10:21;;;;;;;25.83;2.75;;;2.50;99.90;;;;;;5071181;28;20052;-82
2021/04/06 03:12:51;;;;;;;22.30;2.92;;;2.50;99.90;;;;;;5069859;28;20040;-82
2021/04/06 03:15:27;;;;;;;24.38;4.40;;;2.60;99.90;;;;;;5033382;28;20044;-82
2021/04/06 03:17:55;;;;;;;21.58;2.75;;;2.60;99.90;;;;;;5035021;28;20064;-85
2021/04/06 03:20:22;;;;;;;17.23;2.92;;;2.50;99.90;;;;;;5053247;28;20050;-82
2021/04/06 03:22:49;;;;;;;19.95;2.90;;;2.50;99.90;;;;;;5070631;28;20062;-82
2021/04/06 03:25:16;;;;;;;20.90;3.83;;;2.60;99.90;;;;;;5069615;28;20048;-83
2021/04/06 03:27:47;;;;;;;42.40;2.47;;;2.60;99.90;;;;;;5066650;28;20049;-84
2021/04/06 03:30:31;;;;;;;17.30;2.85;;;2.50;99.90;;;;;;5070105;28;20085;-83
2021/04/06 03:33:05;;;;;;;7.00;1.73;;;2.40;99.90;;;;;;5051684;28;20047;-83
2021/04/06 03:35:31;;;;;;;21.63;1.95;;;2.20;99.90;;;;;;5052780;28;20486;-83
2021/04/06 03:37:59;;;;;;;26.90;3.28;;;2.10;99.90;;;;;;5034568;28;20044;-83
2021/04/06 03:40:39;;;;;;;17.15;2.47;;;2.00;99.90;;;;;;5049516;28;20056;-83
2021/04/06 03:43:19;;;;;;;19.17;3.20;;;2.10;99.90;;;;;;5069028;28;20484;-83
2021/04/06 03:46:00;;;;;;;7.70;1.67;;;2.20;99.90;;;;;;5061000;28;20048;-84
2021/04/06 03:48:28;;;;;;;10.93;1.90;;;2.20;99.90;;;;;;5051066;28;20485;-83
2021/04/06 03:50:55;;;;;;;19.35;2.88;;;2.20;99.90;;;;;;5042845;28;20036;-86
2021/04/06 03:53:22;;;;;;;17.67;3.35;;;2.20;99.90;;;;;;5066083;28;20040;-83
2021/04/06 03:56:07;;;;;;;24.38;2.97;;;2.20;99.90;;;;;;5019761;28;20041;-83
2021/04/06 03:58:39;;;;;;;28.77;5.22;;;2.20;99.90;;;;;;5039366;28;20040;-83
2021/04/06 04:01:06;;;;;;;17.10;2.88;;;2.20;99.90;;;;;;5051072;28;20043;-84
2021/04/06 04:03:32;;;;;;;32.38;4.97;;;2.20;99.90;;;;;;5068413;28;20094;-84
2021/04/06 04:05:58;;;;;;;24.85;3.60;;;2.30;99.90;;;;;;5034957;28;20424;-84
2021/04/06 04:08:24;;;;;;;11.77;2.35;;;2.20;99.90;;;;;;5052204;28;20048;-84
2021/04/06 04:10:50;;;;;;;12.82;2.88;;;2.10;99.90;;;;;;5051006;28;20044;-83
2021/04/06 04:13:16;;;;;;;13.75;2.83;;;2.10;99.90;;;;;;5031030;28;20037;-82
2021/04/06 04:15:41;;;;;;;27.75;4.00;;;2.20;99.90;;;;;;5035222;28;20041;-83
2021/04/06 04:18:07;;;;;;;11.30;1.95;;;2.30;99.90;;;;;;5034633;28;20044;-82
2021/04/06 04:20:33;;;;;;;10.05;1.40;;;2.30;99.90;;;;;;5048653;28;20409;-84
2021/04/06 04:22:59;;;;;;;9.73;1.70;;;2.20;99.90;;;;;;5050428;28;20032;-83
2021/04/06 04:25:25;;;;;;;11.80;1.40;;;2.10;99.90;;;;;;5051880;28;20041;-82
2021/04/06 04:27:51;;;;;;;12.15;1.98;;;2.00;99.90;;;;;;5069253;28;20063;-82
2021/04/06 04:30:41;;;;;;;8.63;1.58;;;1.80;99.90;;;;;;5051081;28;20598;-82
2021/04/06 04:33:06;;;;;;;11.35;2.15;;;1.90;99.90;;;;;;5054638;28;20051;-82
2021/04/06 04:35:32;;;;;;;16.52;2.25;;;1.90;99.90;;;;;;5051793;28;20037;-83
2021/04/06 04:37:58;;;;;;;18.65;2.42;;;1.80;99.90;;;;;;5051297;28;20049;-86
2021/04/06 04:40:23;;;;;;;17.20;2.13;;;1.70;99.90;;;;;;5034640;28;20045;-83
2021/04/06 04:42:54;;;;;;;5.93;1.73;;;1.60;99.90;;;;;;5034559;28;20044;-85
2021/04/06 04:45:21;;;;;;;7.35;1.70;;;1.60;99.90;;;;;;5051159;28;20097;-84
2021/04/06 04:47:47;;;;;;;5.78;1.35;;;1.50;99.90;;;;;;5051200;28;20116;-84
2021/04/06 04:50:14;;;;;;;12.25;2.72;;;1.50;99.90;;;;;;5054946;28;20075;-84
2021/04/06 04:52:46;;;;;;;19.40;2.08;;;1.50;99.90;;;;;;5044302;28;20041;-83
2021/04/06 04:55:17;;;;;;;9.95;2.95;;;1.50;99.90;;;;;;5048471;28;20112;-83
2021/04/06 04:57:43;;;;;;;14.23;1.77;;;1.50;99.90;;;;;;5046727;28;20036;-83
2021/04/06 05:00:11;;;;;;;10.63;2.05;;;1.60;99.90;;;;;;5047412;28;20048;-83
2021/04/06 05:02:37;;;;;;;14.20;2.20;;;1.60;99.90;;;;;;5069295;28;20045;-84
2021/04/06 05:05:04;;;;;;;10.32;2.15;;;1.70;99.90;;;;;;5063797;28;20044;-84
2021/04/06 05:07:30;;;;;;;12.00;2.28;;;1.70;99.90;;;;;;5051483;28;20071;-83
2021/04/06 05:09:55;;;;;;;6.80;1.65;;;1.70;99.90;;;;;;5051069;28;20076;-83
2021/04/06 05:12:21;;;;;;;11.27;1.73;;;1.50;99.90;;;;;;5033940;28;20040;-83
2021/04/06 05:14:47;;;;;;;11.38;2.25;;;1.60;99.90;;;;;;5069090;28;20040;-83
2021/04/06 05:17:14;;;;;;;15.30;1.58;;;1.50;99.90;;;;;;5050595;28;20048;-84
2021/04/06 05:19:40;;;;;;;4.57;1.35;;;1.60;99.90;;;;;;5046634;28;20044;-83
2021/04/06 05:22:06;;;;;;;8.32;2.08;;;1.50;99.90;;;;;;5022040;28;20049;-84
2021/04/06 05:24:31;;;;;;;11.88;1.83;;;1.40;99.90;;;;;;5066910;28;20068;-83
2021/04/06 05:26:57;;;;;;;10.10;1.75;;;1.50;99.90;;;;;;5018236;28;20094;-83
2021/04/06 05:29:23;;;;;;;7.43;2.15;;;1.60;99.90;;;;;;5050438;28;20040;-83
2021/04/06 05:31:50;;;;;;;10.95;2.17;;;1.50;99.90;;;;;;5041224;28;20036;-83
2021/04/06 05:34:16;;;;;;;13.10;2.30;;;1.60;99.90;;;;;;5050480;28;20052;-83
2021/04/06 05:36:42;;;;;;;11.73;2.25;;;1.60;99.90;;;;;;5058633;28;20041;-83
2021/04/06 05:39:08;;;;;;;8.88;2.17;;;1.70;99.90;;;;;;5054201;28;20071;-82
2021/04/06 05:41:34;;;;;;;14.40;2.55;;;1.90;99.90;;;;;;5044388;28;20411;-83
2021/04/06 05:44:02;;;;;;;12.15;3.22;;;2.00;99.90;;;;;;5054877;28;20048;-86
2021/04/06 05:46:35;;;;;;;8.00;2.03;;;1.90;99.90;;;;;;5072061;28;20051;-84
2021/04/06 05:49:09;;;;;;;11.65;3.00;;;2.00;99.90;;;;;;5054693;28;20066;-83
2021/04/06 05:51:39;;;;;;;21.75;2.15;;;1.90;99.90;;;;;;5063712;28;20115;-83
2021/04/06 05:54:06;;;;;;;17.60;3.72;;;1.80;99.90;;;;;;5047206;28;20044;-85
2021/04/06 05:56:32;;;;;;;21.05;3.75;;;1.80;99.90;;;;;;5036055;28;20092;-83
2021/04/06 05:58:59;;;;;;;18.20;2.35;;;1.80;99.90;;;;;;5072535;28;20044;-83
2021/04/06 06:01:27;;;;;;;11.60;1.95;;;1.80;99.90;;;;;;5071638;28;20599;-85
2021/04/06 06:03:53;;;;;;;16.85;2.80;;;1.80;99.90;;;;;;5037698;28;20045;-83
2021/04/06 06:06:19;;;;;;;5.22;1.55;;;1.80;99.90;;;;;;5037017;28;20491;-83
2021/04/06 06:08:54;;;;;;;19.10;3.88;;;1.80;99.90;;;;;;5037773;28;20036;-85
2021/04/06 06:11:20;;;;;;;13.70;1.90;;;1.90;99.90;;;;;;5071351;28;20040;-85
2021/04/06 06:13:46;;;;;;;24.05;2.78;;;2.00;99.90;;;;;;5072304;28;20143;-85
2021/04/06 06:16:21;;;;;;;10.93;2.67;;;2.10;99.90;;;;;;5053274;28;20464;-83
2021/04/06 06:19:10;;;;;;;12.77;1.20;;;2.20;99.90;;;;;;5054487;28;20047;-83
2021/04/06 06:21:42;;;;;;;15.02;1.63;;;2.10;99.90;;;;;;5039194;28;20048;-82
2021/04/06 06:24:09;;;;;;;6.43;1.08;;;1.60;99.90;;;;;;5066422;28;20048;-84
2021/04/06 06:26:36;;;;;;;13.15;1.73;;;1.30;99.90;;;;;;5054113;28;20064;-82
2021/04/06 06:29:15;;;;;;;11.57;2.00;;;1.00;99.90;;;;;;5037342;28;20515;-83
2021/04/06 06:31:49;;;;;;;7.15;1.35;;;1.00;99.90;;;;;;5062888;28;20052;-83
2021/04/06 06:34:27;;;;;;;9.25;1.38;;;0.90;99.90;;;;;;5047327;28;20037;-82
2021/04/06 06:37:10;;;;;;;8.25;1.48;;;1.10;99.90;;;;;;5066790;28;20063;-82
2021/04/06 06:39:47;;;;;;;6.53;1.67;;;1.30;99.90;;;;;;5046244;28;20045;-82
2021/04/06 06:42:14;;;;;;;13.25;2.30;;;1.50;99.90;;;;;;5065023;28;20044;-83
2021/04/06 06:44:40;;;;;;;15.10;2.70;;;1.40;99.90;;;;;;5045764;28;20413;-81
2021/04/06 06:47:17;;;;;;;14.93;2.13;;;1.30;99.90;;;;;;5035403;28;20040;-85
2021/04/06 06:49:44;;;;;;;20.42;2.50;;;1.30;99.90;;;;;;5070903;28;20511;-82
2021/04/06 06:52:22;;;;;;;13.52;2.15;;;1.20;99.90;;;;;;5017856;28;20123;-85
2021/04/06 06:54:56;;;;;;;11.88;1.40;;;1.30;99.90;;;;;;5069024;28;20435;-85
2021/04/06 06:57:35;;;;;;;13.32;2.65;;;1.40;99.90;;;;;;5051769;28;20052;-82
2021/04/06 07:00:21;;;;;;;13.65;2.50;;;1.40;99.90;;;;;;5070084;28;20048;-86
2021/04/06 07:02:47;;;;;;;11.90;2.42;;;1.70;99.90;;;;;;5052332;28;20128;-82
2021/04/06 07:05:15;;;;;;;23.48;2.40;;;1.70;99.90;;;;;;5051599;28;20048;-83
2021/04/06 07:08:04;;;;;;;12.50;2.50;;;1.80;99.90;;;;;;5052427;28;20083;-83
2021/04/06 07:10:41;;;;;;;11.00;1.70;;;1.90;99.90;;;;;;5069215;28;20044;-83
2021/04/06 07:13:24;;;;;;;11.93;1.63;;;2.00;99.90;;;;;;5069808;28;20028;-83
2021/04/06 07:15:51;;;;;;;7.93;2.72;;;2.00;99.90;;;;;;5049300;28;20118;-84
2021/04/06 07:18:21;;;;;;;15.40;2.33;;;2.20;99.90;;;;;;5050612;28;20109;-85
2021/04/06 07:21:07;;;;;;;31.45;3.88;;;2.10;99.90;;;;;;5049659;28;20036;-86
2021/04/06 07:23:43;;;;;;;15.75;3.65;;;2.00;99.90;;;;;;5035270;28;20032;-83
2021/04/06 07:26:10;;;;;;;22.13;3.40;;;2.00;99.90;;;;;;5050428;28;20036;-84
2021/04/06 07:28:38;;;;;;;20.55;3.45;;;2.10;99.90;;;;;;5051304;28;20105;-84
2021/04/06 07:31:05;;;;;;;20.52;3.25;;;1.90;99.90;;;;;;5048886;28;20052;-85
2021/04/06 07:33:34;;;;;;;11.93;2.65;;;2.00;99.90;;;;;;5029690;28;20049;-84
2021/04/06 07:36:12;;;;;;;23.10;3.13;;;2.00;99.90;;;;;;5065129;28;20334;-85
2021/04/06 07:38:44;;;;;;;14.77;2.72;;;1.90;99.90;;;;;;5070075;28;20472;-84
2021/04/06 07:41:13;;;;;;;15.68;2.88;;;1.90;99.90;;;;;;5069275;28;20052;-84
2021/04/06 07:43:39;;;;;;;17.63;2.28;;;1.90;99.90;;;;;;5058774;28;20044;-86
2021/04/06 07:46:05;;;;;;;23.65;2.65;;;1.90;99.90;;;;;;5051738;28;20484;-85
2021/04/06 07:48:50;;;;;;;20.98;3.15;;;1.80;99.90;;;;;;5031387;28;20114;-84
2021/04/06 07:51:28;;;;;;;24.20;3.97;;;1.90;99.90;;;;;;5051222;28;20559;-86
2021/04/06 07:53:57;;;;;;;10.00;2.33;;;1.90;99.90;;;;;;5070009;28;20036;-84
2021/04/06 07:56:42;;;;;;;8.98;2.35;;;2.10;99.90;;;;;;5050927;28;20043;-84
2021/04/06 07:59:09;;;;;;;19.63;3.50;;;2.50;99.90;;;;;;5068391;28;20048;-84
2021/04/06 08:01:34;;;;;;;11.05;1.83;;;2.80;99.90;;;;;;5067786;28;20052;-84
2021/04/06 08:04:02;;;;;;;17.27;2.80;;;2.80;99.90;;;;;;5051726;28;20040;-83
2021/04/06 08:06:48;;;;;;;16.83;2.47;;;2.80;99.90;;;;;;5066355;28;20482;-83
2021/04/06 08:09:32;;;;;;;13.48;2.28;;;2.70;99.90;;;;;;5047490;28;20040;-87
2021/04/06 08:12:05;;;;;;;10.45;2.25;;;2.60;99.90;;;;;;5043942;28;20083;-84
2021/04/06 08:14:35;;;;;;;17.35;2.25;;;2.60;99.90;;;;;;5051263;28;20040;-85
2021/04/06 08:17:22;;;;;;;10.18;2.20;;;2.60;99.90;;;;;;5051688;28;20036;-85
2021/04/06 08:19:49;;;;;;;14.88;3.35;;;2.70;99.90;;;;;;5029080;28;20099;-85
2021/04/06 08:22:23;;;;;;;10.88;2.65;;;2.80;99.90;;;;;;5044369;28;20041;-87
2021/04/06 08:24:50;;;;;;;15.40;2.63;;;2.60;99.90;;;;;;5061999;28;20044;-85
2021/04/06 08:27:35;;;;;;;16.60;2.60;;;2.80;99.90;;;;;;5060710;28;20041;-86
2021/04/06 08:30:19;;;;;;;19.10;3.30;;;2.70;99.90;;;;;;5062717;28;20063;-84
2021/04/06 08:33:00;;;;;;;18.27;2.60;;;3.00;99.90;;;;;;5048065;28;20836;-85
2021/04/06 08:41:03;;;;;;;16.20;3.00;;;3.50;99.90;;;;;;5068688;28;20048;-84
2021/04/06 08:43:41;;;;;;;17.77;3.03;;;3.30;99.90;;;;;;5067958;28;20056;-85
2021/04/06 08:46:15;;;;;;;12.70;1.83;;;3.30;99.90;;;;;;5068607;28;20065;-84
2021/04/06 08:48:46;;;;;;;11.82;1.70;;;3.30;99.90;;;;;;5039388;28;20123;-84
2021/04/06 08:51:22;;;;;;;10.77;2.42;;;3.20;99.90;;;;;;5068174;28;20067;-85
2021/04/06 08:53:52;;;;;;;15.60;2.60;;;3.30;99.90;;;;;;5039770;28;20040;-85
2021/04/06 08:56:19;;;;;;;;;;;3.30;99.90;;;;;;5068354;28;20036;-85
2021/04/06 08:58:45;;;;;;;11.68;2.03;;;3.40;99.90;;;;;;5044553;28;19924;-85
2021/04/06 09:01:11;;;;;;;14.30;2.90;;;3.40;99.90;;;;;;4997985;28;20055;-85
2021/04/06 09:03:37;;;;;;;14.18;2.25;;;3.40;99.90;;;;;;5048547;28;20036;-85
2021/04/06 09:06:08;;;;;;;10.98;1.85;;;3.60;99.90;;;;;;5051213;28;20120;-85
2021/04/06 09:09:09;;;;;;;10.52;1.98;;;3.90;99.90;;;;;;5067628;28;20044;-85
2021/04/06 09:11:37;;;;;;;12.85;2.50;;;4.10;99.90;;;;;;4921646;29;20047;-85
2021/04/06 09:14:04;;;;;;;11.75;1.88;;;4.10;99.90;;;;;;5027419;28;20083;-85
2021/04/06 09:16:31;;;;;;;12.55;2.97;;;4.40;99.90;;;;;;5033702;28;20055;-85
2021/04/06 09:19:06;;;;;;;13.60;1.95;;;4.70;99.90;;;;;;5034692;28;20056;-85
2021/04/06 09:21:32;;;;;;;13.07;2.17;;;4.60;99.90;;;;;;5049244;28;20044;-82
2021/04/06 09:24:01;;;;;;;18.20;2.55;;;4.60;99.90;;;;;;5033512;28;20404;-83
2021/04/06 09:26:28;;;;;;;21.33;1.98;;;4.60;99.90;;;;;;5067170;28;20384;-83
2021/04/06 09:29:10;;;;;;;12.07;1.15;;;4.70;99.90;;;;;;5067730;28;20132;-84
2021/04/06 09:31:42;;;;;;;9.00;1.17;;;4.60;99.90;;;;;;5057045;28;20049;-83
2021/04/06 09:34:23;;;;;;;10.60;1.50;;;4.30;99.90;;;;;;5068622;28;20036;-83
2021/04/06 09:36:57;;;;;;;17.45;2.00;;;4.10;99.90;;;;;;5068856;28;20047;-83
2021/04/06 09:39:25;;;;;;;14.05;1.70;;;3.90;99.90;;;;;;5049190;28;20078;-85
2021/04/06 09:41:52;;;;;;;17.13;2.40;;;3.80;99.90;;;;;;5051432;28;20489;-83
2021/04/06 09:44:22;;;;;;;27.80;3.00;;;3.50;99.90;;;;;;5038923;28;20107;-82
2021/04/06 09:46:51;;;;;;;16.73;1.77;;;3.40;99.90;;;;;;5047885;28;20033;-82
2021/04/06 09:49:19;;;;;;;16.05;2.88;;;3.30;99.90;;;;;;5039456;28;20169;-84
2021/04/06 09:51:51;;;;;;;10.73;1.77;;;3.40;99.90;;;;;;5063113;28;20036;-84
2021/04/06 09:54:51;;;;;;;13.32;2.20;;;3.50;99.90;;;;;;5050325;28;20040;-83
2021/04/06 09:57:18;;;;;;;14.35;1.95;;;3.60;99.90;;;;;;5052741;28;20408;-83
2021/04/06 09:59:55;;;;;;;14.88;2.65;;;3.70;99.90;;;;;;4997160;28;20649;-83
2021/04/06 10:02:27;;;;;;;6.07;1.55;;;3.10;99.90;;;;;;5066838;28;20041;-85
2021/04/06 10:04:54;;;;;;;2.75;0.63;;;2.40;99.90;;;;;;5045284;28;20045;-84
2021/04/06 10:07:23;;;;;;;3.90;0.75;;;2.00;99.90;;;;;;5042498;28;20044;-82
2021/04/06 10:09:55;;;;;;;5.00;2.35;;;1.70;99.90;;;;;;5043794;28;20078;-83
2021/04/06 10:12:23;;;;;;;5.03;0.95;;;1.60;99.90;;;;;;5050492;28;20068;-82
2021/04/06 10:14:50;;;;;;;5.57;0.80;;;1.70;99.90;;;;;;5067691;28;20056;-83
2021/04/06 10:17:19;;;;;;;6.20;0.98;;;1.70;99.90;;;;;;5017690;28;20048;-81
2021/04/06 10:20:13;;;;;;;4.22;0.82;;;1.90;99.90;;;;;;5043382;28;20044;-85
2021/04/06 10:22:42;;;;;;;9.52;1.30;;;1.90;99.90;;;;;;5061467;28;20090;-84
2021/04/06 10:25:10;;;;;;;6.63;1.35;;;2.00;99.90;;;;;;5053887;28;20040;-84
2021/04/06 10:27:38;;;;;;;11.98;2.22;;;2.30;99.90;;;;;;5066487;28;20049;-84
2021/04/06 10:30:10;;;;;;;10.95;1.90;;;2.70;99.90;;;;;;5045233;28;20036;-82
2021/04/06 10:32:41;;;;;;;3.55;1.02;;;3.10;99.90;;;;;;5066669;28;20393;-86
2021/04/06 10:35:12;;;;;;;6.45;1.35;;;3.30;99.90;;;;;;5044957;28;20449;-83
2021/04/06 10:37:42;;;;;;;;;;;3.60;99.90;;;;;;5064124;28;20511;-84
2021/04/06 10:40:32;;;;;;;8.18;1.40;;;3.90;99.90;;;;;;5050044;28;19927;-82
2021/04/06 10:43:27;;;;;;;11.87;1.60;;;4.30;99.90;;;;;;5028278;28;20098;-84
2021/04/06 10:45:59;;;;;;;7.65;1.80;;;4.60;99.90;;;;;;5063806;28;20143;-83
2021/04/06 10:48:27;;;;;;;9.00;1.83;;;4.70;99.90;;;;;;5052376;28;20037;-85
2021/04/06 10:51:16;;;;;;;4.55;0.95;;;3.80;99.90;;;;;;5052354;28;20538;-84
2021/04/06 10:53:51;;;;;;;3.70;1.00;;;3.20;99.90;;;;;;5067190;28;20085;-81
2021/04/06 10:56:42;;;;;;;10.50;1.63;;;2.40;99.90;;;;;;5070350;28;20048;-83
2021/04/06 10:59:10;;;;;;;5.93;0.75;;;2.10;99.90;;;;;;5066116;28;20060;-82
2021/04/06 11:01:40;;;;;;;13.13;2.05;;;2.00;99.90;;;;;;5069484;28;20094;-83
2021/04/06 11:04:17;;;;;;;6.22;1.65;;;2.00;99.90;;;;;;5051213;28;20495;-83
2021/04/06 11:06:52;;;;;;;17.38;1.52;;;2.10;99.90;;;;;;5050040;28;20037;-84
2021/04/06 11:09:40;;;;;;;10.40;1.33;;;2.30;99.90;;;;;;5069829;28;20381;-83
2021/04/06 11:12:08;;;;;;;9.98;1.35;;;2.50;99.90;;;;;;5051927;28;20075;-82
2021/04/06 11:14:34;;;;;;;12.57;1.63;;;2.70;99.90;;;;;;5045675;28;20052;-82
2021/04/06 11:17:05;;;;;;;7.15;0.95;;;3.00;99.90;;;;;;5071074;28;20040;-81
2021/04/06 11:19:31;;;;;;;;;;;3.10;99.90;;;;;;5069423;28;20037;-84
2021/04/06 11:22:00;;;;;;;7.30;1.17;;;3.40;99.90;;;;;;5068793;28;19993;-82
2021/04/06 11:24:30;;;;;;;6.32;0.95;;;3.70;99.90;;;;;;5066941;28;20113;-81
2021/04/06 11:26:57;;;;;;;7.63;1.05;;;3.90;99.90;;;;;;5066183;28;20037;-81
2021/04/06 11:29:26;;;;;;;9.05;1.52;;;4.10;99.90;;;;;;5033982;28;20045;-81
2021/04/06 11:31:54;;;;;;;10.85;1.95;;;4.00;99.90;;;;;;5068214;28;20056;-81
2021/04/06 11:34:20;;;;;;;11.35;1.85;;;3.90;99.90;;;;;;5068376;28;20048;-82
2021/04/06 11:36:47;;;;;;;7.15;1.80;;;3.80;99.90;;;;;;5067810;28;20480;-83
2021/04/06 11:39:16;;;;;;;16.38;2.33;;;3.50;99.90;;;;;;5021191;28;20124;-82
2021/04/06 11:41:44;;;;;;;10.50;1.25;;;2.80;99.90;;;;;;5068122;28;20051;-80
2021/04/06 11:44:12;;;;;;;12.60;2.88;;;2.30;99.90;;;;;;5026745;28;20067;-81
2021/04/06 11:46:39;;;;;;;3.83;0.85;;;2.10;99.90;;;;;;5065769;28;20035;-81
2021/04/06 11:49:07;;;;;;;13.02;1.48;;;2.00;99.90;;;;;;5061780;28;21299;-81
2021/04/06 11:51:34;;;;;;;4.68;0.93;;;2.00;99.90;;;;;;5039643;28;20079;-85
2021/04/06 11:54:00;;;;;;;6.50;0.95;;;2.10;99.90;;;;;;5062367;28;20486;-80
2021/04/06 11:56:26;;;;;;;6.55;2.15;;;2.10;99.90;;;;;;5069170;28;20041;-80
2021/04/06 11:58:51;;;;;;;7.47;1.13;;;2.50;99.90;;;;;;5046500;28;20504;-81
2021/04/06 12:01:17;;;;;;;8.02;1.58;;;2.70;99.90;;;;;;5068386;28;20040;-82
2021/04/06 12:03:44;;;;;;;4.20;0.85;;;3.00;99.90;;;;;;5049892;28;20452;-81
2021/04/06 12:06:09;;;;;;;14.05;1.52;;;3.40;99.90;;;;;;5067189;28;20036;-82
2021/04/06 12:08:36;;;;;;;10.32;1.85;;;3.60;99.90;;;;;;5018266;28;20569;-84
2021/04/06 12:11:02;;;;;;;10.75;1.75;;;3.90;99.90;;;;;;5067483;28;20045;-82
2021/04/06 12:13:29;;;;;;;10.35;1.67;;;3.90;99.90;;;;;;5069470;28;20468;-82
2021/04/06 12:15:55;;;;;;;25.08;3.08;;;4.20;99.90;;;;;;5031564;28;20094;-81
2021/04/06 12:18:21;;;;;;;12.00;2.45;;;4.40;99.90;;;;;;5034920;28;20048;-83
2021/04/06 12:20:47;;;;;;;10.43;1.63;;;4.50;99.90;;;;;;5063872;28;20037;-81
2021/04/06 12:23:13;;;;;;;9.82;2.22;;;4.90;99.90;;;;;;5034266;28;20060;-83
2021/04/06 12:25:38;;;;;;;17.55;2.63;;;5.20;99.90;;;;;;5050984;28;20488;-82
2021/04/06 12:28:05;;;;;;;19.80;3.28;;;5.20;99.90;;;;;;5043331;28;20233;-81
2021/04/06 12:30:31;;;;;;;14.60;3.30;;;5.40;99.90;;;;;;5069432;28;20074;-82
2021/04/06 12:32:58;;;;;;;22.17;4.28;;;5.70;99.90;;;;;;5033894;28;20651;-81
2021/04/06 12:35:24;;;;;;;21.88;2.95;;;6.20;99.90;;;;;;5058694;28;20043;-81
2021/04/06 12:37:49;;;;;;;7.72;2.22;;;6.40;99.90;;;;;;5059164;28;20408;-82
2021/04/06 12:40:15;;;;;;;9.27;1.35;;;6.00;99.90;;;;;;5051183;28;20131;-82
2021/04/06 12:42:42;;;;;;;7.75;1.48;;;5.10;99.90;;;;;;5017663;28;20460;-82
2021/04/06 12:45:12;;;;;;;10.95;2.53;;;4.60;99.90;;;;;;5067889;28;20119;-82
2021/04/06 12:47:39;;;;;;;5.38;1.02;;;4.30;99.90;;;;;;5064209;28;20529;-84
2021/04/06 12:50:06;;;;;;;5.93;0.90;;;4.00;99.90;;;;;;5047999;28;20040;-83
2021/04/06 12:52:31;;;;;;;6.00;1.13;;;3.90;99.90;;;;;;5030971;28;20049;-81
2021/04/06 12:54:57;;;;;;;7.13;1.33;;;3.80;99.90;;;;;;5033573;28;20518;-82
2021/04/06 12:57:24;;;;;;;8.00;1.30;;;3.90;99.90;;;;;;5042182;28;20029;-81
2021/04/06 12:59:54;;;;;;;8.77;0.80;;;3.00;99.90;;;;;;5028584;28;20052;-82
2021/04/06 13:02:20;;;;;;;7.43;1.05;;;2.40;99.90;;;;;;5069038;28;20033;-83
2021/04/06 13:04:46;;;;;;;5.05;0.80;;;2.20;99.90;;;;;;5040518;28;20048;-83
2021/04/06 13:07:12;;;;;;;9.55;0.88;;;2.10;99.90;;;;;;5049753;28;20083;-82
2021/04/06 13:09:37;;;;;;;8.18;0.77;;;2.00;99.90;;;;;;5062648;28;20048;-84
2021/04/06 13:12:04;;;;;;;7.30;1.60;;;2.00;99.90;;;;;;5043009;28;20036;-82
2021/04/06 13:14:30;;;;;;;2.22;0.55;;;2.10;99.90;;;;;;5066944;28;20051;-83